createdAt,value
2019-03-24T00:01:25.167Z,19.70
2019-03-24T00:03:56.476Z,19.62
2019-03-24T00:06:27.806Z,18.52
2019-03-24T00:08:59.492Z,19.82
2019-03-24T00:11:30.823Z,19.02
2019-03-24T00:14:02.123Z,20.47
2019-03-24T00:16:33.486Z,17.82
2019-03-24T00:19:04.847Z,17.67
2019-03-24T00:21:36.737Z,19.23
2019-03-24T00:24:08.031Z,19.07
2019-03-24T00:26:39.303Z,19.60
2019-03-24T00:29:10.927Z,20.70
2019-03-24T00:31:42.192Z,19.50
2019-03-24T00:34:13.624Z,16.02
2019-03-24T00:36:44.895Z,19.90
2019-03-24T00:39:16.534Z,18.17
2019-03-24T00:41:47.792Z,18.25
2019-03-24T00:44:19.222Z,19.63
2019-03-24T00:46:50.604Z,20.62
2019-03-24T00:49:21.885Z,19.32
2019-03-24T00:51:53.156Z,21.33
2019-03-24T00:54:24.478Z,18.25
2019-03-24T00:56:55.769Z,17.27
2019-03-24T00:59:27.054Z,20.75
2019-03-24T01:01:58.359Z,18.17
2019-03-24T01:04:29.965Z,21.33
2019-03-24T01:07:01.245Z,18.00
2019-03-24T01:09:33.217Z,21.52
2019-03-24T01:12:04.686Z,20.77
2019-03-24T01:14:35.986Z,22.05
2019-03-24T01:17:07.513Z,19.50
2019-03-24T01:19:38.802Z,21.35
2019-03-24T01:22:10.067Z,20.75
2019-03-24T01:24:41.710Z,20.70
2019-03-24T01:27:14.205Z,20.85
2019-03-24T01:29:45.504Z,20.23
2019-03-24T01:32:16.775Z,19.30
2019-03-24T01:34:48.334Z,19.77
2019-03-24T01:37:19.656Z,23.27
2019-03-24T01:39:51.211Z,20.55
2019-03-24T01:42:22.801Z,18.95
2019-03-24T01:44:54.145Z,20.03
2019-03-24T01:47:25.448Z,20.43
2019-03-24T01:49:56.711Z,18.65
2019-03-24T01:52:28.577Z,19.83
2019-03-24T01:54:59.934Z,21.42
2019-03-24T01:57:31.247Z,21.40
2019-03-24T02:00:02.708Z,21.70
2019-03-24T02:02:35.101Z,22.75
2019-03-24T02:05:06.544Z,22.95
2019-03-24T02:07:37.811Z,22.27
2019-03-24T02:10:09.886Z,25.23
2019-03-24T02:12:41.175Z,23.50
2019-03-24T02:15:12.973Z,23.55
2019-03-24T02:17:44.278Z,23.62
2019-03-24T02:20:15.783Z,26.60
2019-03-24T02:22:47.191Z,22.42
2019-03-24T02:25:18.809Z,26.27
2019-03-24T02:27:50.094Z,24.25
2019-03-24T02:30:21.704Z,23.32
2019-03-24T02:32:53.025Z,24.02
2019-03-24T02:35:24.361Z,30.77
2019-03-24T02:37:55.668Z,28.90
2019-03-24T02:40:26.903Z,26.95
2019-03-24T02:42:58.164Z,25.48
2019-03-24T02:45:29.525Z,28.12
2019-03-24T02:48:01.040Z,27.07
2019-03-24T02:50:32.362Z,30.12
2019-03-24T02:53:03.755Z,27.95
2019-03-24T02:55:35.457Z,27.10
2019-03-24T02:58:07.145Z,30.27
2019-03-24T03:00:38.637Z,32.70
2019-03-24T03:03:10.344Z,29.87
2019-03-24T03:05:43.047Z,28.17
2019-03-24T03:08:14.545Z,32.28
2019-03-24T03:10:45.880Z,35.33
2019-03-24T03:13:17.575Z,33.33
2019-03-24T03:15:48.923Z,33.75
2019-03-24T03:18:20.210Z,30.65
2019-03-24T03:20:51.499Z,33.30
2019-03-24T03:23:22.852Z,32.50
2019-03-24T03:25:54.256Z,33.20
2019-03-24T03:28:25.589Z,35.15
2019-03-24T03:30:56.830Z,33.85
2019-03-24T03:33:28.423Z,30.50
2019-03-24T03:35:59.759Z,33.43
2019-03-24T03:38:31.202Z,32.88
2019-03-24T03:41:02.641Z,33.47
2019-03-24T03:43:33.993Z,34.05
2019-03-24T03:46:05.751Z,31.15
2019-03-24T03:48:37.674Z,35.85
2019-03-24T03:51:08.972Z,30.55
2019-03-24T03:53:40.298Z,33.92
2019-03-24T03:56:11.555Z,34.40
2019-03-24T03:58:43.620Z,32.20
2019-03-24T04:01:15.919Z,34.53
2019-03-24T04:03:47.214Z,33.28
2019-03-24T04:06:18.508Z,34.33
2019-03-24T04:08:49.865Z,34.85
2019-03-24T04:11:21.118Z,37.03
2019-03-24T04:13:52.648Z,33.80
2019-03-24T04:16:23.951Z,32.00
2019-03-24T04:18:55.242Z,33.13
2019-03-24T04:21:26.500Z,40.17
2019-03-24T04:23:57.809Z,31.95
2019-03-24T04:26:29.072Z,33.73
2019-03-24T04:29:00.361Z,32.27
2019-03-24T04:31:31.652Z,32.00
2019-03-24T04:34:02.982Z,33.50
2019-03-24T04:36:34.243Z,35.50
2019-03-24T04:39:06.900Z,36.63
2019-03-24T04:41:38.233Z,35.90
2019-03-24T04:44:09.523Z,34.70
2019-03-24T04:46:40.787Z,34.63
2019-03-24T04:49:13.114Z,36.03
2019-03-24T04:51:44.370Z,34.85
2019-03-24T04:54:15.952Z,36.83
2019-03-24T04:56:48.298Z,35.35
2019-03-24T04:59:19.865Z,37.93
2019-03-24T05:01:51.113Z,34.27
2019-03-24T05:04:22.429Z,32.40
2019-03-24T05:06:54.241Z,38.17
2019-03-24T05:09:27.147Z,31.75
2019-03-24T05:11:58.455Z,32.23
2019-03-24T05:14:29.763Z,30.32
2019-03-24T05:17:01.033Z,31.15
2019-03-24T05:19:32.334Z,29.02
2019-03-24T05:22:03.585Z,27.70
2019-03-24T05:24:35.135Z,29.50
2019-03-24T05:27:06.513Z,27.93
2019-03-24T05:29:37.824Z,31.40
2019-03-24T05:32:09.095Z,28.95
2019-03-24T05:34:40.416Z,27.98
2019-03-24T05:37:11.966Z,31.20
2019-03-24T05:39:43.572Z,26.87
2019-03-24T05:42:15.284Z,30.75
2019-03-24T05:44:46.905Z,27.15
2019-03-24T05:47:18.246Z,24.17
2019-03-24T05:49:49.562Z,27.32
2019-03-24T05:52:20.826Z,25.92
2019-03-24T05:54:52.110Z,25.50
2019-03-24T05:57:23.719Z,26.85
2019-03-24T05:59:55.037Z,23.42
2019-03-24T06:02:26.307Z,27.32
2019-03-24T06:04:57.593Z,23.95
2019-03-24T06:07:28.836Z,26.97
2019-03-24T06:10:00.470Z,22.58
2019-03-24T06:12:32.088Z,24.90
2019-03-24T06:15:03.423Z,22.90
2019-03-24T06:17:34.680Z,22.83
2019-03-24T06:20:06.875Z,27.82
2019-03-24T06:22:38.217Z,19.75
2019-03-24T06:25:09.935Z,22.90
2019-03-24T06:27:41.161Z,21.65
2019-03-24T06:30:12.902Z,21.13
2019-03-24T06:32:44.185Z,23.42
2019-03-24T06:35:16.874Z,22.50
2019-03-24T06:37:48.137Z,21.52
2019-03-24T06:40:19.986Z,21.73
2019-03-24T06:42:51.770Z,24.18
2019-03-24T06:45:28.298Z,22.05
2019-03-24T06:47:58.129Z,20.50
2019-03-24T06:50:29.431Z,19.62
2019-03-24T06:53:00.675Z,21.20
2019-03-24T06:55:31.917Z,19.83
2019-03-24T06:58:03.210Z,21.75
2019-03-24T07:00:34.518Z,20.82
2019-03-24T07:03:05.805Z,24.17
2019-03-24T07:05:37.412Z,17.35
2019-03-24T07:08:09.637Z,20.87
2019-03-24T07:10:40.920Z,21.37
2019-03-24T07:13:12.257Z,20.37
2019-03-24T07:15:43.931Z,20.30
2019-03-24T07:18:15.450Z,20.88
2019-03-24T07:20:47.023Z,23.05
2019-03-24T07:23:18.637Z,19.50
2019-03-24T07:25:49.954Z,22.00
2019-03-24T07:28:21.274Z,21.97
2019-03-24T07:30:52.609Z,20.10
2019-03-24T07:33:24.254Z,21.20
2019-03-24T07:35:55.537Z,20.48
2019-03-24T07:38:26.801Z,24.98
2019-03-24T07:40:59.179Z,21.33
2019-03-24T07:43:30.467Z,20.60
2019-03-24T07:46:01.711Z,22.37
2019-03-24T07:48:32.986Z,23.33
2019-03-24T07:51:04.314Z,23.90
2019-03-24T07:53:35.564Z,21.42
2019-03-24T07:56:07.455Z,20.77
2019-03-24T07:58:38.776Z,21.48
2019-03-24T08:01:10.723Z,21.00
2019-03-24T08:03:41.995Z,24.37
2019-03-24T08:06:13.286Z,25.00
2019-03-24T08:08:44.674Z,18.20
2019-03-24T08:11:15.942Z,17.33
2019-03-24T08:13:53.789Z,19.15
2019-03-24T08:16:20.297Z,23.10
2019-03-24T08:18:51.952Z,20.37
2019-03-24T08:21:23.241Z,21.82
2019-03-24T08:23:54.553Z,17.50
2019-03-24T08:26:25.822Z,19.73
2019-03-24T08:28:57.106Z,20.65
2019-03-24T08:31:28.740Z,19.82
2019-03-24T08:34:00.171Z,22.02
2019-03-24T08:36:31.689Z,18.00
2019-03-24T08:39:03.892Z,19.70
2019-03-24T08:41:35.519Z,22.25
2019-03-24T08:44:07.023Z,19.35
2019-03-24T08:46:38.367Z,20.75
2019-03-24T08:49:28.629Z,20.60
2019-03-24T08:51:59.981Z,20.37
2019-03-24T08:54:32.351Z,19.92
2019-03-24T08:57:03.718Z,17.98
2019-03-24T08:59:35.414Z,19.73
2019-03-24T09:02:07.086Z,20.60
2019-03-24T09:04:38.398Z,18.12
2019-03-24T09:07:09.684Z,20.35
2019-03-24T09:09:41.040Z,17.67
2019-03-24T09:12:12.327Z,23.77
2019-03-24T09:14:43.593Z,22.37
2019-03-24T09:17:14.882Z,23.27
2019-03-24T09:19:46.143Z,23.87
2019-03-24T09:22:17.420Z,23.87
2019-03-24T09:24:50.924Z,20.82
2019-03-24T09:27:22.555Z,16.87
2019-03-24T09:29:53.837Z,19.17
2019-03-24T09:32:25.383Z,22.17
2019-03-24T09:34:56.753Z,22.32
2019-03-24T09:37:30.034Z,19.15
2019-03-24T09:40:02.523Z,18.98
2019-03-24T09:42:33.915Z,21.03
2019-03-24T09:45:05.444Z,17.45
2019-03-24T09:47:37.041Z,17.50
2019-03-24T09:50:08.538Z,21.17
2019-03-24T09:52:39.937Z,20.43
2019-03-24T09:55:11.395Z,20.70
2019-03-24T09:57:42.990Z,20.95
2019-03-24T10:00:14.811Z,19.42
2019-03-24T10:02:46.116Z,20.50
2019-03-24T10:05:17.433Z,20.37
2019-03-24T10:07:49.322Z,18.92
2019-03-24T10:10:20.978Z,18.40
2019-03-24T10:12:52.333Z,20.72
2019-03-24T10:15:23.727Z,20.10
2019-03-24T10:17:55.349Z,21.55
2019-03-24T10:20:27.005Z,21.65
2019-03-24T10:22:58.626Z,18.37
2019-03-24T10:25:30.419Z,18.62
2019-03-24T10:28:01.685Z,19.82
2019-03-24T10:30:32.947Z,18.75
2019-03-24T10:33:04.294Z,21.57
2019-03-24T10:35:36.737Z,19.77
2019-03-24T10:38:08.321Z,20.83
2019-03-24T10:40:40.173Z,20.92
2019-03-24T10:43:11.827Z,20.70
2019-03-24T10:45:43.143Z,21.40
2019-03-24T10:48:15.515Z,22.95
2019-03-24T10:50:48.134Z,19.67
2019-03-24T10:53:19.413Z,21.23
2019-03-24T10:55:50.761Z,19.98
2019-03-24T10:58:22.263Z,20.80
2019-03-24T11:00:53.929Z,20.55
2019-03-24T11:03:25.183Z,19.52
2019-03-24T11:05:56.465Z,18.73
2019-03-24T11:08:27.804Z,17.17
2019-03-24T11:10:59.093Z,19.48
2019-03-24T11:13:31.510Z,19.87
2019-03-24T11:16:02.795Z,17.43
2019-03-24T11:18:34.058Z,18.60
2019-03-24T11:21:05.691Z,17.53
2019-03-24T11:23:36.976Z,18.10
2019-03-24T11:26:08.309Z,13.95
2019-03-24T11:28:39.624Z,13.38
2019-03-24T11:31:10.961Z,15.43
2019-03-24T11:33:44.888Z,12.55
2019-03-24T11:36:16.266Z,16.00
2019-03-24T11:38:47.556Z,14.23
2019-03-24T11:41:18.891Z,15.03
2019-03-24T11:43:50.265Z,16.27
2019-03-24T11:46:21.524Z,18.37
2019-03-24T11:48:53.137Z,16.30
2019-03-24T11:51:24.455Z,21.75
2019-03-24T11:53:55.771Z,21.48
2019-03-24T11:56:27.077Z,21.37
2019-03-24T11:58:58.703Z,23.45
2019-03-24T12:01:41.390Z,19.45
2019-03-24T12:04:12.859Z,17.50
2019-03-24T12:06:44.194Z,15.50
2019-03-24T12:09:15.502Z,19.90
2019-03-24T12:11:46.793Z,16.42
2019-03-24T12:14:18.175Z,17.12
2019-03-24T12:16:49.485Z,14.35
2019-03-24T12:19:20.867Z,15.55
2019-03-24T12:21:52.181Z,13.15
2019-03-24T12:24:23.552Z,13.25
2019-03-24T12:26:54.843Z,12.55
2019-03-24T12:29:26.158Z,12.35
2019-03-24T12:31:57.485Z,12.00
2019-03-24T12:34:28.836Z,11.53
2019-03-24T12:37:00.114Z,12.55
2019-03-24T12:39:31.413Z,14.25
2019-03-24T12:42:02.818Z,12.47
2019-03-24T12:44:34.111Z,8.83
2019-03-24T12:47:05.515Z,9.58
2019-03-24T12:49:37.460Z,10.55
2019-03-24T12:52:08.906Z,10.10
2019-03-24T12:54:40.284Z,8.73
2019-03-24T12:57:11.560Z,12.53
2019-03-24T12:59:42.866Z,10.93
2019-03-24T13:02:14.234Z,9.80
2019-03-24T13:04:45.541Z,9.10
2019-03-24T13:07:16.946Z,8.98
2019-03-24T13:09:48.411Z,9.70
2019-03-24T13:12:19.959Z,9.73
2019-03-24T13:14:51.287Z,8.80
2019-03-24T13:17:22.628Z,11.48
2019-03-24T13:19:54.115Z,10.75
2019-03-24T13:22:25.932Z,10.23
2019-03-24T13:24:57.329Z,11.28
2019-03-24T13:27:28.689Z,9.83
2019-03-24T13:30:00.018Z,8.28
2019-03-24T13:32:31.619Z,9.23
2019-03-24T13:35:03.031Z,9.88
2019-03-24T13:37:34.323Z,11.48
2019-03-24T13:40:05.899Z,8.30
2019-03-24T13:42:37.215Z,8.63
2019-03-24T13:45:08.640Z,8.90
2019-03-24T13:47:39.965Z,8.05
2019-03-24T13:50:11.456Z,13.25
2019-03-24T13:52:42.753Z,16.85
2019-03-24T13:55:14.256Z,13.03
2019-03-24T13:57:45.530Z,6.97
2019-03-24T14:00:19.159Z,6.60
2019-03-24T14:02:50.773Z,6.08
2019-03-24T14:05:22.151Z,7.67
2019-03-24T14:07:53.446Z,7.33
2019-03-24T14:10:25.698Z,8.30
2019-03-24T14:12:57.103Z,16.90
2019-03-24T14:15:28.389Z,7.80
2019-03-24T14:17:59.853Z,7.42
2019-03-24T14:20:42.449Z,7.92
2019-03-24T14:23:04.339Z,6.87
2019-03-24T14:25:35.672Z,8.13
2019-03-24T14:28:07.060Z,6.55
2019-03-24T14:30:43.289Z,7.37
2019-03-24T14:33:15.440Z,6.35
2019-03-24T14:35:47.047Z,8.08
2019-03-24T14:38:18.312Z,8.20
2019-03-24T14:40:49.751Z,7.78
2019-03-24T14:43:21.398Z,6.67
2019-03-24T14:45:52.705Z,15.55
2019-03-24T14:48:23.993Z,11.80
2019-03-24T14:50:55.688Z,10.00
2019-03-24T14:53:26.990Z,10.23
2019-03-24T14:55:58.318Z,11.10
2019-03-24T14:58:29.622Z,9.35
2019-03-24T15:01:00.998Z,8.33
2019-03-24T15:03:33.690Z,8.50
2019-03-24T15:06:05.242Z,6.22
2019-03-24T15:08:36.522Z,8.07
2019-03-24T15:11:07.904Z,6.27
2019-03-24T15:13:39.188Z,6.67
2019-03-24T15:16:10.490Z,6.40
2019-03-24T15:18:41.783Z,6.17
2019-03-24T15:21:13.086Z,6.10
2019-03-24T15:23:44.402Z,5.07
2019-03-24T15:26:15.798Z,5.97
2019-03-24T15:28:47.326Z,5.77
2019-03-24T15:31:18.628Z,6.83
2019-03-24T15:33:49.920Z,5.80
2019-03-24T15:36:21.219Z,5.30
2019-03-24T15:38:52.572Z,5.27
2019-03-24T15:41:23.951Z,6.17
2019-03-24T15:43:55.385Z,5.70
2019-03-24T15:46:26.669Z,5.35
2019-03-24T15:48:57.963Z,5.50
2019-03-24T15:51:29.290Z,7.55
2019-03-24T15:54:00.651Z,5.40
2019-03-24T15:56:31.991Z,8.85
2019-03-24T15:59:03.391Z,7.85
2019-03-24T16:01:34.696Z,8.10
2019-03-24T16:04:06.141Z,6.80
2019-03-24T16:06:37.526Z,8.43
2019-03-24T16:09:09.678Z,7.67
2019-03-24T16:11:40.977Z,9.55
2019-03-24T16:14:13.312Z,6.97
2019-03-24T16:16:44.621Z,9.73
2019-03-24T16:19:15.941Z,10.25
2019-03-24T16:21:47.295Z,8.38
2019-03-24T16:24:18.587Z,7.90
2019-03-24T16:26:49.907Z,7.37
2019-03-24T16:29:21.556Z,7.67
2019-03-24T16:31:52.917Z,8.80
2019-03-24T16:34:24.259Z,7.90
2019-03-24T16:36:55.615Z,9.45
2019-03-24T16:39:26.922Z,8.78
2019-03-24T16:41:58.261Z,9.50
2019-03-24T16:44:29.669Z,10.03
2019-03-24T16:47:00.967Z,9.35
2019-03-24T16:49:32.310Z,9.45
2019-03-24T16:52:03.750Z,9.30
2019-03-24T16:54:35.033Z,9.10
2019-03-24T16:57:06.357Z,9.08
2019-03-24T16:59:37.750Z,10.20
2019-03-24T17:02:09.113Z,12.47
2019-03-24T17:04:40.510Z,11.20
2019-03-24T17:07:11.866Z,10.85
2019-03-24T17:09:43.169Z,8.55
2019-03-24T17:12:14.955Z,9.80
2019-03-24T17:14:46.373Z,10.23
2019-03-24T17:17:18.022Z,10.60
2019-03-24T17:19:49.435Z,13.70
2019-03-24T17:22:21.158Z,11.03
2019-03-24T17:24:52.779Z,11.25
2019-03-24T17:27:24.107Z,13.10
2019-03-24T17:29:55.412Z,12.55
2019-03-24T17:32:26.708Z,11.45
2019-03-24T17:35:03.880Z,12.94
2019-03-24T17:37:35.287Z,12.33
2019-03-24T17:40:07.328Z,10.50
2019-03-24T17:42:38.829Z,12.82
2019-03-24T17:45:11.199Z,10.82
2019-03-24T17:47:42.504Z,8.95
2019-03-24T17:50:14.479Z,10.32
2019-03-24T17:52:46.277Z,11.80
2019-03-24T17:55:27.160Z,8.18
2019-03-24T17:57:51.985Z,9.38
2019-03-24T18:00:38.112Z,7.00
2019-03-24T18:03:09.501Z,7.80
2019-03-24T18:05:40.969Z,9.00
2019-03-24T18:08:12.370Z,8.38
2019-03-24T18:10:44.862Z,7.35
2019-03-24T18:13:16.195Z,8.10
2019-03-24T18:15:47.468Z,7.30
2019-03-24T18:18:19.043Z,7.72
2019-03-24T18:20:50.370Z,7.15
2019-03-24T18:23:21.639Z,7.08
2019-03-24T18:25:53.102Z,7.12
2019-03-24T18:28:24.461Z,7.65
2019-03-24T18:30:55.973Z,7.20
2019-03-24T18:33:27.252Z,10.65
2019-03-24T18:35:58.546Z,11.63
2019-03-24T18:38:29.778Z,9.28
2019-03-24T18:41:01.786Z,10.58
2019-03-24T18:43:33.134Z,9.45
2019-03-24T18:46:04.518Z,9.05
2019-03-24T18:48:36.209Z,9.30
2019-03-24T18:51:07.473Z,10.73
2019-03-24T18:53:38.760Z,8.23
2019-03-24T18:56:10.427Z,12.05
2019-03-24T18:58:41.747Z,12.23
2019-03-24T19:01:13.353Z,10.45
2019-03-24T19:03:44.690Z,9.90
2019-03-24T19:06:15.963Z,11.97
2019-03-24T19:08:47.214Z,11.60
2019-03-24T19:11:18.488Z,11.33
2019-03-24T19:13:49.812Z,9.50
2019-03-24T19:16:21.070Z,12.90
2019-03-24T19:18:52.633Z,11.35
2019-03-24T19:21:23.917Z,11.88
2019-03-24T19:23:55.992Z,15.72
2019-03-24T19:26:27.539Z,11.83
2019-03-24T19:28:59.826Z,12.37
2019-03-24T19:31:31.132Z,9.68
2019-03-24T19:34:02.492Z,14.55
2019-03-24T19:36:34.583Z,12.53
2019-03-24T19:39:08.693Z,10.82
2019-03-24T19:41:40.031Z,10.70
2019-03-24T19:44:11.905Z,10.45
2019-03-24T19:46:43.188Z,10.03
2019-03-24T19:49:14.432Z,10.32
2019-03-24T19:51:45.713Z,10.68
2019-03-24T19:54:16.994Z,15.48
2019-03-24T19:56:48.253Z,12.73
2019-03-24T19:59:19.639Z,8.85
2019-03-24T20:01:51.963Z,11.40
2019-03-24T20:04:24.185Z,9.38
2019-03-24T20:06:55.470Z,10.60
2019-03-24T20:09:26.752Z,11.35
2019-03-24T20:11:58.012Z,11.40
2019-03-24T20:14:29.441Z,14.33
2019-03-24T20:17:00.703Z,11.60
2019-03-24T20:19:31.979Z,12.25
2019-03-24T20:22:03.253Z,9.98
2019-03-24T20:24:34.962Z,11.87
2019-03-24T20:27:06.234Z,11.68
2019-03-24T20:29:37.501Z,10.47
2019-03-24T20:32:08.853Z,10.05
2019-03-24T20:34:40.138Z,11.25
2019-03-24T20:37:11.428Z,12.07
2019-03-24T20:39:42.735Z,10.63
2019-03-24T20:42:14.022Z,15.60
2019-03-24T20:44:45.284Z,11.03
2019-03-24T20:47:16.552Z,15.83
2019-03-24T20:49:48.774Z,11.45
2019-03-24T20:52:20.983Z,15.35
2019-03-24T20:54:52.547Z,12.63
2019-03-24T20:57:23.873Z,12.60
2019-03-24T20:59:55.217Z,13.25
2019-03-24T21:02:26.502Z,12.40
2019-03-24T21:04:57.803Z,17.90
2019-03-24T21:07:29.088Z,15.80
2019-03-24T21:10:00.537Z,14.65
2019-03-24T21:12:31.904Z,17.20
2019-03-24T21:15:03.262Z,15.70
2019-03-24T21:17:35.564Z,14.70
2019-03-24T21:20:07.552Z,14.23
2019-03-24T21:22:38.976Z,12.30
2019-03-24T21:25:10.717Z,14.65
2019-03-24T21:27:42.081Z,11.50
2019-03-24T21:30:14.711Z,14.18
2019-03-24T21:32:46.147Z,13.22
2019-03-24T21:35:17.675Z,13.13
2019-03-24T21:37:48.929Z,13.35
2019-03-24T21:40:20.421Z,15.13
2019-03-24T21:42:51.722Z,15.00
2019-03-24T21:45:22.972Z,16.00
2019-03-24T21:47:54.572Z,15.85
2019-03-24T21:50:26.208Z,14.87
2019-03-24T21:52:57.769Z,14.47
2019-03-24T21:55:29.791Z,13.00
2019-03-24T21:58:04.745Z,14.65
2019-03-24T22:00:37.642Z,13.03
2019-03-24T22:03:09.161Z,13.80
2019-03-24T22:05:40.904Z,14.05
2019-03-24T22:08:12.202Z,14.17
2019-03-24T22:10:43.560Z,14.07
2019-03-24T22:13:15.082Z,14.90
2019-03-24T22:15:46.370Z,19.55
2019-03-24T22:18:17.630Z,11.80
2019-03-24T22:20:49.426Z,15.75
2019-03-24T22:23:21.193Z,16.10
2019-03-24T22:25:52.721Z,16.75
2019-03-24T22:28:24.358Z,14.78
2019-03-24T22:30:56.568Z,15.03
2019-03-24T22:33:29.059Z,15.30
2019-03-24T22:36:00.653Z,15.65
2019-03-24T22:38:31.995Z,15.45
2019-03-24T22:41:03.298Z,19.35
2019-03-24T22:43:34.558Z,16.70
2019-03-24T22:46:06.308Z,16.33
2019-03-24T22:48:37.547Z,13.70
2019-03-24T22:51:08.802Z,15.83
2019-03-24T22:53:40.209Z,15.15
2019-03-24T22:56:11.516Z,14.90
2019-03-24T22:58:42.807Z,15.03
2019-03-24T23:01:15.761Z,12.25
2019-03-24T23:03:47.475Z,15.07
2019-03-24T23:06:18.770Z,12.58
2019-03-24T23:08:50.112Z,14.65
2019-03-24T23:11:21.466Z,15.38
2019-03-24T23:13:52.706Z,13.98
2019-03-24T23:16:24.968Z,15.08
2019-03-24T23:18:56.224Z,13.25
2019-03-24T23:21:27.502Z,15.28
2019-03-24T23:23:59.076Z,13.55
2019-03-24T23:26:30.395Z,16.35
2019-03-24T23:29:01.684Z,14.63
2019-03-24T23:31:34.216Z,12.45
2019-03-24T23:34:06.163Z,14.53
2019-03-24T23:36:37.850Z,14.40
2019-03-24T23:39:09.577Z,16.87
2019-03-24T23:41:41.115Z,15.98
2019-03-24T23:44:12.415Z,14.93
2019-03-24T23:46:43.797Z,15.60
2019-03-24T23:49:15.046Z,17.10
2019-03-24T23:51:46.746Z,15.83
2019-03-24T23:54:26.570Z,19.25
2019-03-24T23:56:50.974Z,12.85
2019-03-24T23:59:22.255Z,18.60
